Atlanta, MI

6:19 PM EDT on May 27, 2015 (GMT -0400)
Moon Lake | | Change Station
CLOSE
Current Station
Personal Weather Station
Location: Lewiston, MI
Elevation: 1240 ft
Nearby Weather Stations

Elev 1240 ft 44.84 °N, 84.26 °W | Updated 9 minutes ago

Overcast
Overcast
67.3 °F
Feels Like 67.3 °F
N
1.3
Wind Variable Wind from WNW
Gusts 1.3 mph

Today
High -- | Low -- °F
--% Chance of Precip.
Yesterday
High -- | Low -- °F
Precip. -- in
5:56 AM 9:11 PM
Waxing Gibbous, 70% visible
Pressure 29.95 in
Visibility 10.0 miles
Clouds Scattered Clouds 1300 ft
Mostly Cloudy 2000 ft
Dew Point 56 °F
Humidity 68%
Rainfall 0.00 in
Snow Depth Not available.
UV 2 out of 12
Pollen 6.60 out of 12
Air Quality Not available.
Flu Activity Sporadic
SPECI KGLR 272211Z AUTO 30007G16KT 260V320 10SM SCT013 BKN020 17/13 A2995 RMK AO2 T01670128

More Conditions Fewer Conditions

Pressure 29.95 in
Visibility 10.0 miles
Clouds Scattered Clouds 1300 ft
Mostly Cloudy 2000 ft
Dew Point 56 °F
Humidity 68%
Rainfall 0.00 in
Snow Depth Not available.
UV 2 out of 12
Pollen 6.60 out of 12
Air Quality Not available.
Flu Activity Sporadic
SPECI KGLR 272211Z AUTO 30007G16KT 260V320 10SM SCT013 BKN020 17/13 A2995 RMK AO2 T01670128

More Conditions Fewer Conditions

Nowcast | as of 6:00 PM EDT on May 27, 2015

At 7 PM...showers likely and chance of drizzle. Temperature 57. West winds 10 mph. At 9 PM...showers likely and chance of drizzle. Temperature 62. West winds 8 mph. At 11 PM...partly cloudy. Patchy fog. Temperature 57. West winds 5 mph. At 1 am...partly cloudy. Patchy fog. Temperature 54. Light winds.

×

10-Day Weather Forecast

Almanac

Astronomy

May. 27, 2015 Rise Set
Actual Time
Civil Twilight
Nautical Twilight
Astronomical Twilight
Moon
Length of Visible Light
Length of Day
Tomorrow will be .
, % of the Moon is Illuminated

Today's Extremes

State Highs State Lows

Community

WunderPhotos

Upload Photos

1,824,809 photos uploaded!

WunderBlogs® & News

Nearby

Air Quality

  Air Quality AQ Index Pollutant
Not available.

Snow Depth

Station Depth Elevation

Earthquake Activity

City Distance Mag. Time & Date
Minimum magnitude displayed is 2.5.

Coastal Water Temperatures

Place Temperature

Stations

Nearby Weather Stations

Station Location Temp. Windchill Dew Point Humidity Wind Precip. Elev Updated Type